• Join FlightAware (Why Join?)
  • Login
  • US Flag 
06:50PM EDT


 

Airport Tracker/Info


-or-


 

Live Flight TrackerFlight Track Log ✈ AAL2100 ✈ 19-Jul-2013 ✈ MMMX / MEX - KMIA

Flight Track Log - Related Links

Times and Time Zones

All times are in EDT time to prevent confusion due to time zone crossing. See the AAL2100 flight status page for this flight to view local times or setup timezone preferences in your user account.

Time Position Orientation Groundspeed Altitude Reporting Facility
EDT Latitude Longitude Course Direction KTS MPH feet Rate Location/Type
05:49PM 19.5523 -98.7225 71° East  Level FlightAware Approximate
05:50PM 19.5908 -98.6058 71° East  Level FlightAware Approximate
05:51PM 19.6292 -98.4891 71° East  Level FlightAware Approximate
05:52PM 19.6676 -98.3723 71° East  Level FlightAware Approximate
05:53PM 19.7059 -98.2555 71° East  Level FlightAware Approximate
05:54PM 19.7441 -98.1386 71° East  Level FlightAware Approximate
05:55PM 19.7822 -98.0217 71° East  Level FlightAware Approximate
05:56PM 19.8203 -97.9047 71° East  Level FlightAware Approximate
05:57PM 19.8582 -97.7876 71° East  Level FlightAware Approximate
05:58PM 19.8962 -97.6705 71° East  Level FlightAware Approximate
05:59PM 19.9340 -97.5534 71° East  Level FlightAware Approximate
06:00PM 19.9717 -97.4361 71° East  Level FlightAware Approximate
06:01PM 20.0094 -97.3189 71° East  Level FlightAware Approximate
06:02PM 20.0470 -97.2015 71° East  Level FlightAware Approximate
06:03PM 20.0845 -97.0841 71° East  Level FlightAware Approximate
06:04PM 20.1215 -96.9686 71° East  Level FlightAware Approximate
06:05PM 20.1597 -96.8514 71° East  Level FlightAware Approximate
06:06PM 20.1979 -96.7342 71° East  Level FlightAware Approximate
06:07PM 20.2360 -96.6169 71° East  Level FlightAware Approximate
06:08PM 20.2740 -96.4995 71° East  Level FlightAware Approximate
06:09PM 20.3120 -96.3821 71° East  Level FlightAware Approximate
06:10PM 20.3496 -96.2654 71° East  Level FlightAware Approximate
06:11PM 20.3872 -96.1486 71° East  Level FlightAware Approximate
06:12PM 20.4246 -96.0317 71° East  Level FlightAware Approximate
06:13PM 20.4620 -95.9148 71° East  Level FlightAware Approximate
06:14PM 20.4993 -95.7979 71° East  Level FlightAware Approximate
06:15PM 20.5366 -95.6808 71° East  Level FlightAware Approximate
06:16PM 20.5737 -95.5638 71° East  Level FlightAware Approximate
06:17PM 20.6108 -95.4466 71° East  Level FlightAware Approximate
06:18PM 20.6478 -95.3294 71° East  Level FlightAware Approximate
06:19PM 20.6847 -95.2122 72° East  Level FlightAware Approximate
06:20PM 20.7209 -95.0947 72° East  Level FlightAware Approximate
06:21PM 20.7572 -94.9771 71° East  Level FlightAware Approximate
06:22PM 20.7940 -94.8597 71° East  Level FlightAware Approximate
06:23PM 20.8307 -94.7423 71° East  Level FlightAware Approximate
06:24PM 20.8673 -94.6248 72° East  Level FlightAware Approximate
06:25PM 20.9038 -94.5072 72° East  Level FlightAware Approximate
06:26PM 20.9403 -94.3896 72° East  Level FlightAware Approximate
06:27PM 20.9767 -94.2719 72° East  Level FlightAware Approximate
06:28PM 21.0130 -94.1542 72° East  Level FlightAware Approximate
06:29PM 21.0492 -94.0364 72° East  Level FlightAware Approximate
06:30PM 21.0853 -93.9186 72° East  Level FlightAware Approximate
06:31PM 21.1214 -93.8007 72° East  Level FlightAware Approximate
06:32PM 21.1573 -93.6827 72° East  Level FlightAware Approximate
06:33PM 21.1932 -93.5647 72° East  Level FlightAware Approximate
06:34PM 21.2290 -93.4467 72° East  Level FlightAware Approximate
06:35PM 21.2648 -93.3285 72° East  Level FlightAware Approximate
06:36PM 21.3004 -93.2103 72° East  Level FlightAware Approximate
06:37PM 21.3360 -93.0921 72° East  Level FlightAware Approximate
06:38PM 21.3715 -92.9738 72° East  Level FlightAware Approximate
06:39PM 21.4069 -92.8554 72° East  Level FlightAware Approximate
06:40PM 21.4423 -92.7371 72° East  Level FlightAware Approximate
06:40PM 20.7030 -92.5520 72° East 473 544 39,000  Level FlightAware
06:41PM 21.4780 -92.6188 72° East  Level FlightAware Approximate
06:41PM 20.7390 -92.4400 71° East 472 543 39,000  Level FlightAware
06:42PM 20.7890 -92.2830 71° East 470 541 39,000  Level FlightAware
06:42PM 20.8150 -92.1990 72° East 468 539 39,000  Level FlightAware
06:43PM 20.8590 -92.0590 71° East 466 536 39,000  Level FlightAware
06:44PM 20.8900 -91.9600 71° East 463 533 39,000  Level FlightAware
06:45PM 20.9160 -91.8770 71° East 463 533 39,000  Level FlightAware
06:46PM 20.9570 -91.7460 71° East 465 535 39,000  Level FlightAware
06:46PM 20.9790 -91.6770 71° East 465 535 39,000  Level FlightAware
06:47PM 21.0010 -91.6060 72° East 465 535 39,000  Level FlightAware
06:47PM 21.0310 -91.5090 72° East 465 535 39,000  Level FlightAware
06:48PM 21.0620 -91.4080 72° East 466 536 39,000  Level FlightAware
06:49PM 21.0920 -91.3110 72° East 466 536 39,000  Level FlightAware
06:50PM 21.1170 -91.2310 71° East 466 536 39,000  Level FlightAware
06:50PM 21.1450 -91.1410 72° East 467 537 39,000  Level FlightAware
06:51PM 21.1760 -91.0400 72° East 469 540 39,000  Level FlightAware
06:52PM 21.2040 -90.9470 72° East 470 541 39,000  Level FlightAware
06:52PM 21.2340 -90.8490 72° East 472 543 39,000  Level FlightAware
06:53PM 21.2610 -90.7600 72° East 473 544 39,000  Level FlightAware
06:54PM 21.2910 -90.6630 72° East 474 545 39,000  Level FlightAware
06:54PM 21.3120 -90.5940 72° East 473 544 39,000  Level FlightAware
06:55PM 21.3370 -90.5120 72° East 471 542 39,000  Level FlightAware
06:56PM 21.3760 -90.3820 72° East 470 541 39,000  Level FlightAware
06:57PM 21.4050 -90.2840 72° East 470 541 39,000  Level FlightAware
06:57PM 21.4310 -90.1990 72° East 470 541 39,000  Level FlightAware
06:58PM 21.4590 -90.1070 72° East 470 541 39,000  Level FlightAware
06:59PM 21.4880 -90.0110 72° East 470 541 39,000  Level FlightAware
06:59PM 21.5150 -89.9200 72° East 470 541 39,000  Level FlightAware
07:00PM 21.5440 -89.8220 72° East 469 540 39,000  Level FlightAware
07:01PM 21.5710 -89.7300 72° East 468 539 39,000  Level FlightAware
07:02PM 21.6000 -89.6340 72° East 468 539 39,000  Level FlightAware
07:02PM 21.6260 -89.5450 73° East 467 537 39,000  Level FlightAware
07:03PM 21.6500 -89.4640 72° East 466 536 39,000  Level FlightAware
07:03PM 21.6680 -89.4030 72° East 466 536 39,000  Level FlightAware
07:04PM 21.6950 -89.3110 72° East 465 535 39,000  Level FlightAware
07:05PM 21.7240 -89.2130 72° East 465 535 39,000  Level FlightAware
07:06PM 21.7550 -89.1090 72° East 463 533 39,000  Level FlightAware
07:06PM 21.7810 -89.0210 72° East 461 531 39,000  Level FlightAware
07:07PM 21.8060 -88.9350 73° East 460 529 39,000  Level FlightAware
07:08PM 21.8310 -88.8470 73° East 459 528 39,000  Level FlightAware
07:09PM 21.8610 -88.7460 72° East 458 527 39,000  Level FlightAware
07:09PM 21.8940 -88.6320 73° East 459 528 39,000  Level FlightAware
07:10PM 21.9240 -88.5280 73° East 458 527 39,000  Level FlightAware
07:11PM 21.9490 -88.4410 73° East 458 527 39,000  Level FlightAware
07:11PM 21.9760 -88.3470 73° East 458 527 39,000  Level FlightAware
07:12PM 22.0010 -88.2590 73° East 458 527 39,000  Level FlightAware
07:13PM 22.0070 -88.2370 74° East 458 527 39,000  Level FlightAware
07:13PM 22.0380 -88.1310 72° East 458 527 39,000  Level FlightAware
07:14PM 22.0650 -88.0370 73° East 458 527 39,000  Level FlightAware
07:15PM 22.0980 -87.9190 73° East 458 527 39,000  Level FlightAware
07:15PM 22.1150 -87.8620 72° East 456 525 39,000  Level FlightAware
07:16PM 22.1430 -87.7620 73° East 456 525 39,000  Level FlightAware
07:17PM 22.1740 -87.6520 73° East 456 525 39,000  Level FlightAware
07:17PM 22.1980 -87.5670 73° East 456 525 39,000  Level FlightAware
07:18PM 22.2270 -87.4630 73° East 456 525 39,000  Level FlightAware
07:19PM 22.2430 -87.4070 73° East 455 524 39,000  Level FlightAware
07:19PM 22.2750 -87.2920 73° East 453 521 39,000  Level FlightAware
07:20PM 22.3030 -87.1930 73° East 454 522 39,000  Level FlightAware
07:21PM 22.3270 -87.1060 73° East 453 521 39,000  Level FlightAware
07:21PM 22.3500 -87.0230 73° East 453 521 39,000  Level FlightAware
07:22PM 22.3730 -86.9430 73° East 453 521 39,000  Level FlightAware
07:23PM 22.3950 -86.8630 73° East 453 521 39,000  Level FlightAware
07:24PM 22.4270 -86.7460 73° East 454 522 39,000  Level FlightAware
07:24PM 22.4500 -86.6640 73° East 453 521 39,000  Level FlightAware
07:25PM 22.4710 -86.5870 74° East 452 520 39,000  Level FlightAware
07:26PM 22.4990 -86.4840 74° East 451 519 39,000  Level FlightAware
07:26PM 22.5230 -86.3970 73° East 450 518 39,000  Level FlightAware
07:27PM 22.5450 -86.3180 73° East 450 518 39,000  Level FlightAware
07:28PM 22.5790 -86.1920 74° East 450 518 39,000  Level FlightAware
07:29PM 22.6090 -86.0810 74° East 450 518 39,000  Level FlightAware
07:30PM 22.6390 -85.9830 72° East 448 516 39,000  Level FlightAware
07:30PM 22.6670 -85.9120 67° East 448 516 39,000  Level FlightAware
07:31PM 22.7010 -85.8260 67° East 448 516 39,000  Level FlightAware
07:32PM 22.7730 -85.7040 57° Northeast 447 514 39,000  Level FlightAware
07:33PM 22.8040 -85.6400 62° Northeast 447 514 39,000  Level FlightAware
07:33PM 22.8370 -85.5690 63° Northeast 447 514 39,000  Level FlightAware
07:34PM 22.8700 -85.5020 62° Northeast 447 514 39,000  Level FlightAware
07:35PM 22.9090 -85.4210 62° Northeast 447 514 39,000  Level FlightAware
07:35PM 22.9390 -85.3600 62° Northeast 447 514 39,000 -60 Level FlightAware
07:38PM 23.0826 -85.1172 57° Northeast  Level Estimated
07:39PM 23.1458 -85.0099 57° Northeast  Level Estimated
07:40PM 23.2090 -84.9025 57° Northeast  Level Estimated
07:41PM 23.2720 -84.7950 57° Northeast  Level Estimated
07:42PM 23.3351 -84.6874 57° Northeast  Level Estimated
07:43PM 23.3980 -84.5797 58° Northeast  Level Estimated
07:44PM 23.4608 -84.4719 58° Northeast  Level Estimated
07:45PM 23.5236 -84.3640 58° Northeast  Level Estimated
07:46PM 23.5863 -84.2560 58° Northeast  Level Estimated
07:47PM 23.6490 -84.1479 58° Northeast  Level Estimated
07:48PM 23.7115 -84.0396 58° Northeast  Level Estimated
07:48PM 23.6817 -83.7436 58° Northeast 457 526 38,900  Level Miami Center
07:49PM 23.7740 -83.9313 58° Northeast  Level Estimated
07:49PM 23.7328 -83.6286 64° Northeast 443 510 39,000  Level Miami Center
07:50PM 23.8364 -83.8229 58° Northeast  Level Estimated
07:50PM 23.7900 -83.5158 61° Northeast 430 495 39,000  Level Miami Center
07:51PM 23.8988 -83.7144 58° Northeast  Level Estimated
07:51PM 23.8411 -83.3983 65° Northeast 424 488 38,900  Level Miami Center
07:52PM 23.9610 -83.6058 58° Northeast  Level Estimated
07:52PM 23.8942 -83.2808 64° Northeast 424 488 39,000  Level Miami Center
07:53PM 24.0232 -83.4970 58° Northeast  Level Estimated
07:53PM 23.9453 -83.1631 65° Northeast 419 482 39,000  Level Miami Center
07:54PM 24.0019 -83.0525 61° Northeast 419 482 38,900 -240 Descending Miami Center
08:00PM 24.4380 -82.4420 61° Northeast 438 504 37,400 -240 Descending FlightAware
08:01PM 24.4810 -82.3830 51° Northeast 438 504 37,400  Level FlightAware
08:02PM 24.5220 -82.3270 51° Northeast 438 504 37,400  Level FlightAware
08:02PM 24.5610 -82.2740 51° Northeast 438 504 37,400 -1,920 Level FlightAware
08:03PM 24.6790 -82.1150 51° Northeast 449 517 33,800 -2,940 Descending FlightAware
08:04PM 24.7460 -82.0230 51° Northeast 451 519 31,500 -2,580 Descending FlightAware
08:05PM 24.8170 -81.9260 51° Northeast 427 491 29,700 -2,280 Descending FlightAware
08:06PM 24.8660 -81.8590 51° Northeast 419 482 27,900 -2,460 Descending FlightAware
08:06PM 24.9090 -81.8000 51° Northeast 417 480 26,400 -2,340 Descending FlightAware
08:07PM 24.9810 -81.7020 51° Northeast 398 458 24,200 -2,280 Descending FlightAware
08:08PM 25.0320 -81.6310 52° Northeast 390 449 22,700 -1,980 Descending FlightAware
08:09PM 25.0840 -81.5610 51° Northeast 374 430 21,300 -1,740 Descending FlightAware
08:10PM 25.1310 -81.4950 52° Northeast 369 425 20,100 -1,500 Descending FlightAware
08:10PM 25.1850 -81.4210 51° Northeast 368 423 18,800 -1,260 Descending FlightAware
08:11PM 25.2170 -81.3770 51° Northeast 365 420 18,100 -1,680 Descending FlightAware
08:12PM 25.2750 -81.2960 52° Northeast 359 413 16,600 -1,920 Descending FlightAware
08:13PM 25.3190 -81.2360 51° Northeast 348 400 15,500 -1,380 Descending FlightAware
08:13PM 25.3600 -81.1790 51° Northeast 340 391 14,400 -1,500 Descending FlightAware
08:14PM 25.4040 -81.1170 52° Northeast 335 386 13,200 -1,080 Descending FlightAware
08:15PM 25.4440 -81.0610 52° Northeast 326 375 13,000 -1,080 Descending FlightAware
08:16PM 25.4900 -80.9980 51° Northeast 316 364 11,600 -900 Descending FlightAware
08:16PM 25.5260 -80.9450 53° Northeast 316 364 11,600  Level FlightAware
08:17PM 25.5540 -80.9060 51° Northeast 316 364 11,600 -1,020 Level FlightAware
08:20PM 25.7380 -80.7530 37° Northeast 252 290 8,200 -1,140 Descending FlightAware
08:20PM 25.7580 -80.7440 22° Northeast 227 261 8,100 -180 Descending FlightAware
08:21PM 25.7790 -80.7310 29° Northeast 227 261 8,100 -1,200 Level FlightAware
08:21PM 25.7710 -80.7010 106° East 187 215 7,200 -1,980 Descending FlightAware
08:21PM 25.7710 -80.6760 90° East 185 213 6,600 -1,380 Descending FlightAware
08:22PM 25.7720 -80.6610 86° East 187 215 6,200 -1,380 Descending FlightAware
08:22PM 25.7730 -80.6390 87° East 184 212 5,700 -1,200 Descending FlightAware
08:23PM 25.7740 -80.6080 88° East 181 208 5,100 -1,260 Descending FlightAware
08:23PM 25.7750 -80.5830 87° East 180 207 4,500 -1,440 Descending FlightAware
08:23PM 25.7760 -80.5680 86° East 179 206 4,100 -1,140 Descending FlightAware
08:24PM 25.7760 -80.5430 90° East 172 198 3,700 -840 Descending FlightAware
08:24PM 25.7770 -80.5160 88° East 174 200 3,300 -780 Descending FlightAware
08:25PM 25.7780 -80.4930 87° East 173 199 3,000 -600 Descending FlightAware
08:25PM 25.7790 -80.4710 87° East 164 189 2,800 -840 Descending FlightAware
08:26PM 25.7810 -80.4450 85° East 152 175 2,200 -1,140 Descending FlightAware
08:26PM 25.7810 -80.4240 90° East 142 163 1,700 -840 Descending FlightAware
08:27PM 25.7820 -80.4070 86° East 143 165 1,500 -720 Descending FlightAware
08:27PM 25.7830 -80.3860 87° East 144 166 1,100 -480 Descending FlightAware
08:28PM 25.7840 -80.3580 88° East 143 165 1,000 -180 Descending FlightAware
08:29PM 25.7870 -80.2920 87° East 59 68 -600 Descending FlightAware
08:30PM 25.7880 -80.2870 77° East 28 32  Level FlightAware
08:30PM 25.7910 -80.2870 360° North 19 22  Level FlightAware
08:31PM 25.7930 -80.2870 360° North 23 26  Level FlightAware